Main page
METAR-TAF:

METAR-TAF

Airports :

Rabat–Salé Airport

Rabat, Morocco

latitude: 34-03N, longitude: 006-46W, elevation: 84 m

Current weather observation

The report was made 6 minutes ago, at 04:30 UTC
Calm wind
Temperature 21°C
Humidity 69%
Pressure 1017 hPa
Visibility 10 km or more
Broken clouds at a height of 2300 ft
Scattered clouds at a height of 10000 ft

METAR: GMME 160430Z 00000KT 9999 BKN023 SCT100 21/15 Q1017 NOSIG

Time: 05:36 (04:36 UTC)

Forecast

The report was made 5 hours and 36 minutes ago, at 23:00 UTC
Forecast valid from 16 at 00 UTC to 17 at 06 UTC
Wind 8 kt from the West
Visibility: 5000 m
Scattered clouds at a height of 1500 ft
Scattered clouds at a height of 2000 ft
Temporary
from 16 at 12 UTC to 16 at 18 UTC
Visibility 10 km or more
no clouds below 1500 m and no cumulonimbus
Temporary
from 16 at 18 UTC to 16 at 24 UTC
Wind 2 kt from variable directions

TAF: GMME 152300Z 1600/1706 28008KT 5000 SCT015 SCT020 TEMPO 1612/1618 CAVOK TEMPO 1618/1624 VRB02KT

Weather observations and forecasts of more than 4000 airports (METAR and TAF reports).

The available stations are represented by yellow and red dots on the map.

Hover mouse over dot to see the name of the station.

Then click to see weather observations and forecasts.

To change the map : click on the green buttons with a black cross to zoom in, on the green button with a dash to zoom out, or on the green arrows for adjacent maps.


METAR-TAF: